City Of Industry, CA (91714)

7:14 AM PDT on August 30, 2015 (GMT -0700)
Daytona Avenue | | Change Station
CLOSE
Current Station
Personal Weather Station
Location: Hacienda Heights, CA
Elevation: 640 ft
Nearby Weather Stations

Elev 640 ft 33.99 °N, 117.99 °W | Updated 17 seconds ago

Partly Cloudy
Partly Cloudy
71.6 °F
Feels Like 72 °F
N
0.0
Wind Variable Wind from SSW
Gusts 0.0 mph

Today
High -- | Low -- °F
--% Chance of Precip.
Yesterday
High -- | Low -- °F
Precip. -- in
6:23 AM 7:20 PM
Full, 99% visible
Pressure 29.88 in
Visibility 8.0 miles
Clouds Scattered Clouds 700 ft
Overcast 1100 ft
Heat Index 72 °F
Dew Point 65 °F
Humidity 79%
Rainfall 0.00 in
Snow Depth Not available.
UV 1.0 out of 12
Pollen 6.00 out of 12
Air Quality Not available.
Flu Activity Not available.
SPECI KFUL 301405Z 12003KT 8SM SCT007 OVC011 23/21 A2988 RMK AO2 T02280206
Pressure 29.88 in
Visibility 8.0 miles
Clouds Scattered Clouds 700 ft
Overcast 1100 ft
Heat Index 72 °F
Dew Point 65 °F
Humidity 79%
Rainfall 0.00 in
Snow Depth Not available.
UV 1.0 out of 12
Pollen 6.00 out of 12
Air Quality Not available.
Flu Activity Not available.
SPECI KFUL 301405Z 12003KT 8SM SCT007 OVC011 23/21 A2988 RMK AO2 T02280206

10-Day Weather Forecast

×

Almanac

Astronomy

Aug. 30, 2015 Rise Set
Actual Time
Civil Twilight
Nautical Twilight
Astronomical Twilight
Moon
Length of Visible Light
Length of Day
Tomorrow will be .
, % of the Moon is Illuminated

Today's Extremes

State Highs State Lows

Community

WunderPhotos

Upload Photos

1,850,968 photos uploaded!

WunderBlogs® & News

Nearby

Air Quality

  Air Quality AQ Index Pollutant
Not available.

Snow Depth

Station Depth Elevation

Earthquake Activity

City Distance Mag. Time & Date
Minimum magnitude displayed is 2.5.

Coastal Water Temperatures

Place Temperature

Stations

Nearby Weather Stations

Station Location Temp. Windchill Dew Point Humidity Wind Precip. Elev Updated Type